Arkville, New York
Current Conditions -  °F | °C
As of 11:15 PM on Wednesday 22 Oct 2014 (Local Time) from KMSV Reporting Station
Overcast Overcast  
Wind Chill:   Ceiling: 5500
Heat Index:   Visibility: 10mi
Dew Point:   Wind: 15mph
Humidity: 87%   Direction: 360°N
Pressure: 29.87"   Gusts: 25mph
Location:  42.15°N, 74.62°W
Report Text: KMSV 230315Z AUTO 36013G22KT 10SM FEW049 BKN055 OVC080 08/06 A2987 RMK AO1
Loading
Personal Weather Stations






























Interactive Weather Map
Tropical Storm Tracking
New forecast layout! Learn more

10-Day Weather Forecast

Advertisements
Track Severe Weather on mobile